createdAt,value
2018-04-16T00:00:51.266Z,8.28
2018-04-16T00:03:57.083Z,8.24
2018-04-16T00:07:02.053Z,8.22
2018-04-16T00:10:07.931Z,8.18
2018-04-16T00:13:14.063Z,8.19
2018-04-16T00:16:19.717Z,8.15
2018-04-16T00:19:24.692Z,8.12
2018-04-16T00:22:31.774Z,8.10
2018-04-16T00:25:38.384Z,8.09
2018-04-16T00:28:43.985Z,8.09
2018-04-16T00:31:54.602Z,8.02
2018-04-16T00:35:06.142Z,8.01
2018-04-16T00:38:17.409Z,7.99
2018-04-16T00:41:28.549Z,7.97
2018-04-16T00:44:39.478Z,7.95
2018-04-16T00:47:50.576Z,7.97
2018-04-16T00:51:01.200Z,7.92
2018-04-16T00:54:23.588Z,7.90
2018-04-16T00:57:35.085Z,7.84
2018-04-16T01:00:45.727Z,7.83
2018-04-16T01:03:56.781Z,7.84
2018-04-16T01:07:08.114Z,7.82
2018-04-16T01:13:57.641Z,7.74
2018-04-16T01:17:07.881Z,7.74
2018-04-16T01:20:19.205Z,7.74
2018-04-16T01:23:30.193Z,7.72
2018-04-16T01:26:41.077Z,7.70
2018-04-16T01:29:51.969Z,7.72
2018-04-16T01:33:02.965Z,7.72
2018-04-16T01:36:14.010Z,7.69
2018-04-16T01:39:24.894Z,7.69
2018-04-16T01:46:13.097Z,7.67
2018-04-16T01:49:23.761Z,7.60
2018-04-16T01:52:34.833Z,7.64
2018-04-16T01:55:46.053Z,7.61
2018-04-16T01:58:56.651Z,7.60
2018-04-16T02:02:07.869Z,7.55
2018-04-16T02:05:19.369Z,7.57
2018-04-16T02:08:30.040Z,7.53
2018-04-16T02:11:41.053Z,7.52
2018-04-16T02:14:51.688Z,7.54
2018-04-16T02:18:02.596Z,7.49
2018-04-16T02:21:13.893Z,7.49
2018-04-16T02:28:05.192Z,7.45
2018-04-16T02:31:15.774Z,7.44
2018-04-16T02:34:27.158Z,7.42
2018-04-16T02:37:38.190Z,7.42
2018-04-16T02:40:49.603Z,7.39
2018-04-16T02:44:00.583Z,7.38
2018-04-16T02:47:11.276Z,7.36
2018-04-16T02:50:22.582Z,7.36
2018-04-16T02:53:33.329Z,7.38
2018-04-16T02:56:44.919Z,7.36
2018-04-16T02:59:55.498Z,7.35
2018-04-16T03:03:06.689Z,7.32
2018-04-16T03:06:17.821Z,7.34
2018-04-16T03:09:29.277Z,7.30
2018-04-16T03:12:39.871Z,7.33
2018-04-16T03:15:50.097Z,7.32
2018-04-16T03:19:00.736Z,7.34
2018-04-16T03:22:11.925Z,7.29
2018-04-16T03:25:23.140Z,7.31
2018-04-16T03:28:33.767Z,7.30
2018-04-16T03:31:45.378Z,7.29
2018-04-16T03:34:56.559Z,7.27
2018-04-16T03:38:07.597Z,7.24
2018-04-16T03:41:18.572Z,7.24
2018-04-16T03:44:29.037Z,7.24
2018-04-16T03:47:40.462Z,7.16
2018-04-16T03:50:51.488Z,7.19
2018-04-16T03:53:57.089Z,7.21
2018-04-16T03:57:02.311Z,7.18
2018-04-16T04:00:08.464Z,7.17
2018-04-16T04:03:14.524Z,7.16
2018-04-16T04:06:20.573Z,7.16
2018-04-16T04:09:26.405Z,7.20
2018-04-16T04:12:32.154Z,7.19
2018-04-16T04:15:38.184Z,7.17
2018-04-16T04:18:44.041Z,7.17
2018-04-16T04:21:50.073Z,7.19
2018-04-16T04:25:07.137Z,7.15
2018-04-16T04:28:24.060Z,7.20
2018-04-16T04:31:29.895Z,7.15
2018-04-16T04:34:35.899Z,7.14
2018-04-16T04:37:42.032Z,7.17
2018-04-16T04:40:48.159Z,7.15
2018-04-16T04:43:53.385Z,7.16
2018-04-16T04:46:59.447Z,7.16
2018-04-16T04:50:05.572Z,7.14
2018-04-16T04:53:11.494Z,7.16
2018-04-16T04:56:17.657Z,7.16
2018-04-16T04:59:23.788Z,7.13
2018-04-16T05:02:29.425Z,7.16
2018-04-16T05:05:35.268Z,7.15
2018-04-16T05:08:40.485Z,7.17
2018-04-16T05:11:45.725Z,7.14
2018-04-16T05:14:50.670Z,7.19
2018-04-16T05:17:56.089Z,7.18
2018-04-16T05:21:02.249Z,7.21
2018-04-16T05:24:08.166Z,7.21
2018-04-16T05:27:14.213Z,7.22
2018-04-16T05:30:19.918Z,7.24
2018-04-16T05:33:25.097Z,7.29
2018-04-16T05:36:30.125Z,7.34
2018-04-16T05:39:35.331Z,7.36
2018-04-16T05:42:41.696Z,7.39
2018-04-16T05:45:47.836Z,7.42
2018-04-16T05:48:53.774Z,7.44
2018-04-16T05:51:59.621Z,7.48
2018-04-16T05:55:05.760Z,7.48
2018-04-16T05:58:11.478Z,7.50
2018-04-16T06:01:16.673Z,7.51
2018-04-16T06:04:21.881Z,7.54
2018-04-16T06:07:27.098Z,7.57
2018-04-16T06:10:32.935Z,7.59
2018-04-16T06:13:38.546Z,7.62
2018-04-16T06:16:43.683Z,7.65
2018-04-16T06:19:48.652Z,7.69
2018-04-16T06:22:53.901Z,7.72
2018-04-16T06:25:58.877Z,7.75
2018-04-16T06:29:04.105Z,7.79
2018-04-16T06:32:09.321Z,7.81
2018-04-16T06:35:15.193Z,7.86
2018-04-16T06:38:21.325Z,7.89
2018-04-16T06:41:27.461Z,7.94
2018-04-16T06:44:33.510Z,7.97
2018-04-16T06:47:38.729Z,8.01
2018-04-16T06:50:43.940Z,8.06
2018-04-16T06:53:49.162Z,8.11
2018-04-16T06:56:54.361Z,8.14
2018-04-16T07:00:00.525Z,8.19
2018-04-16T07:03:06.569Z,8.23
2018-04-16T07:06:12.403Z,8.27
2018-04-16T07:09:17.622Z,8.32
2018-04-16T07:12:23.845Z,8.36
2018-04-16T07:15:29.876Z,8.40
2018-04-16T07:18:35.502Z,8.44
2018-04-16T07:21:41.412Z,8.48
2018-04-16T07:24:46.621Z,8.52
2018-04-16T07:27:52.753Z,8.57
2018-04-16T07:30:58.590Z,8.61
2018-04-16T07:34:04.437Z,8.64
2018-04-16T07:37:10.061Z,8.68
2018-04-16T07:40:15.054Z,8.72
2018-04-16T07:43:20.686Z,8.77
2018-04-16T07:46:26.509Z,8.81
2018-04-16T07:49:31.731Z,8.85
2018-04-16T07:52:36.975Z,8.91
2018-04-16T07:55:42.224Z,8.97
2018-04-16T07:58:47.433Z,9.01
2018-04-16T08:01:53.369Z,9.06
2018-04-16T08:04:59.304Z,9.11
2018-04-16T08:08:04.478Z,9.16
2018-04-16T08:11:09.470Z,9.22
2018-04-16T08:14:15.618Z,9.27
2018-04-16T08:17:21.234Z,9.33
2018-04-16T08:20:27.385Z,9.39
2018-04-16T08:23:33.305Z,9.46
2018-04-16T08:26:38.951Z,9.53
2018-04-16T08:29:43.833Z,9.61
2018-04-16T08:32:50.177Z,9.69
2018-04-16T08:35:55.893Z,9.76
2018-04-16T08:39:00.581Z,9.84
2018-04-16T08:42:05.798Z,9.92
2018-04-16T08:45:11.229Z,10.01
2018-04-16T08:48:16.453Z,10.10
2018-04-16T08:51:22.798Z,10.19
2018-04-16T08:54:28.049Z,10.28
2018-04-16T08:57:33.257Z,10.38
2018-04-16T09:00:38.975Z,10.47
2018-04-16T09:03:44.960Z,10.57
2018-04-16T09:06:50.921Z,10.67
2018-04-16T09:09:56.146Z,10.76
2018-04-16T09:13:01.383Z,10.86
2018-04-16T09:16:07.503Z,10.96
2018-04-16T09:19:13.453Z,11.07
2018-04-16T09:22:19.211Z,11.16
2018-04-16T09:25:25.341Z,11.25
2018-04-16T09:28:30.857Z,11.34
2018-04-16T09:31:36.617Z,11.41
2018-04-16T09:34:43.766Z,11.48
2018-04-16T09:37:50.611Z,11.54
2018-04-16T09:40:56.298Z,11.61
2018-04-16T09:44:01.521Z,11.66
2018-04-16T09:47:07.558Z,11.72
2018-04-16T09:50:14.000Z,11.78
2018-04-16T09:53:19.641Z,11.80
2018-04-16T09:56:25.764Z,11.90
2018-04-16T09:59:31.706Z,11.99
2018-04-16T10:02:37.502Z,12.05
2018-04-16T10:05:43.309Z,12.12
2018-04-16T10:08:49.150Z,12.22
2018-04-16T10:11:54.374Z,12.30
2018-04-16T10:15:00.161Z,12.35
2018-04-16T10:18:05.058Z,12.43
2018-04-16T10:21:10.468Z,12.49
2018-04-16T10:24:15.697Z,12.55
2018-04-16T10:27:21.658Z,12.60
2018-04-16T10:30:26.885Z,12.68
2018-04-16T10:33:33.025Z,12.76
2018-04-16T10:36:38.241Z,12.80
2018-04-16T10:39:45.371Z,12.87
2018-04-16T10:42:51.195Z,12.92
2018-04-16T10:45:56.802Z,12.98
2018-04-16T10:49:01.770Z,13.04
2018-04-16T10:52:06.986Z,13.10
2018-04-16T10:55:12.202Z,13.16
2018-04-16T10:58:17.345Z,13.21
2018-04-16T11:01:22.972Z,13.26
2018-04-16T11:04:28.773Z,13.32
2018-04-16T11:07:34.017Z,13.36
2018-04-16T11:10:39.233Z,13.41
2018-04-16T11:13:44.219Z,13.46
2018-04-16T11:16:49.617Z,13.51
2018-04-16T11:19:54.833Z,13.55
2018-04-16T11:22:59.822Z,13.59
2018-04-16T11:26:05.460Z,13.64
2018-04-16T11:29:10.897Z,13.69
2018-04-16T11:32:16.203Z,13.73
2018-04-16T11:35:21.540Z,13.77
2018-04-16T11:38:27.602Z,13.84
2018-04-16T11:41:32.816Z,13.88
2018-04-16T11:44:38.985Z,13.94
2018-04-16T11:47:44.221Z,13.99
2018-04-16T11:50:50.368Z,14.04
2018-04-16T11:53:56.402Z,14.10
2018-04-16T11:57:02.553Z,14.17
2018-04-16T12:00:07.765Z,14.23
2018-04-16T12:03:12.748Z,14.30
2018-04-16T12:06:17.973Z,14.37
2018-04-16T12:09:24.049Z,14.43
2018-04-16T12:12:31.243Z,14.51
2018-04-16T12:15:37.113Z,14.58
2018-04-16T12:18:42.841Z,14.63
2018-04-16T12:21:49.625Z,14.68
2018-04-16T12:24:56.041Z,14.74
2018-04-16T12:28:01.869Z,14.78
2018-04-16T12:31:07.793Z,14.85
2018-04-16T12:34:13.830Z,14.90
2018-04-16T12:37:19.849Z,14.94
2018-04-16T12:40:25.873Z,14.99
2018-04-16T12:43:31.691Z,15.02
2018-04-16T12:46:36.929Z,15.07
2018-04-16T12:49:42.137Z,15.14
2018-04-16T12:52:47.989Z,15.20
2018-04-16T12:55:54.039Z,15.25
2018-04-16T12:59:00.083Z,15.30
2018-04-16T13:02:06.037Z,15.36
2018-04-16T13:05:11.986Z,15.42
2018-04-16T13:08:18.015Z,15.48
2018-04-16T13:11:25.157Z,15.54
2018-04-16T13:14:31.104Z,15.61
2018-04-16T13:17:37.225Z,15.66
2018-04-16T13:20:44.274Z,15.72
2018-04-16T13:23:50.097Z,15.83
2018-04-16T13:26:56.154Z,15.92
2018-04-16T13:30:03.235Z,16.00
2018-04-16T13:33:08.789Z,16.05
2018-04-16T13:36:14.925Z,16.14
2018-04-16T13:39:20.140Z,16.21
2018-04-16T13:42:26.285Z,16.28
2018-04-16T13:45:32.534Z,16.34
2018-04-16T13:48:38.353Z,16.41
2018-04-16T13:51:43.584Z,16.47
2018-04-16T13:54:49.729Z,16.50
2018-04-16T13:57:55.629Z,16.51
2018-04-16T14:01:01.468Z,16.55
2018-04-16T14:04:07.114Z,16.59
2018-04-16T14:07:13.453Z,16.59
2018-04-16T14:10:19.406Z,16.60
2018-04-16T14:13:24.626Z,16.61
2018-04-16T14:16:29.677Z,16.60
2018-04-16T14:19:34.893Z,16.54
2018-04-16T14:22:40.106Z,16.47
2018-04-16T14:25:46.161Z,16.42
2018-04-16T14:28:52.065Z,16.34
2018-04-16T14:31:59.035Z,16.26
2018-04-16T14:35:04.847Z,16.13
2018-04-16T14:38:10.766Z,16.03
2018-04-16T14:41:16.910Z,15.90
2018-04-16T14:44:22.649Z,15.77
2018-04-16T14:47:28.590Z,15.68
2018-04-16T14:50:34.609Z,15.59
2018-04-16T14:53:40.644Z,15.45
2018-04-16T14:56:46.794Z,15.33
2018-04-16T14:59:52.773Z,15.22
2018-04-16T15:02:58.457Z,15.12
2018-04-16T15:06:04.113Z,15.04
2018-04-16T15:09:10.270Z,14.94
2018-04-16T15:12:16.089Z,14.87
2018-04-16T15:15:22.122Z,14.80
2018-04-16T15:18:28.090Z,14.73
2018-04-16T15:21:34.045Z,14.66
2018-04-16T15:24:39.913Z,14.61
2018-04-16T15:27:46.054Z,14.56
2018-04-16T15:30:51.497Z,14.51
2018-04-16T15:33:56.732Z,14.47
2018-04-16T15:37:01.656Z,14.42
2018-04-16T15:40:07.719Z,14.38
2018-04-16T15:43:13.507Z,14.34
2018-04-16T15:46:20.459Z,14.29
2018-04-16T15:49:26.006Z,14.23
2018-04-16T15:52:31.256Z,14.17
2018-04-16T15:55:36.629Z,14.13
2018-04-16T15:58:41.592Z,14.07
2018-04-16T16:01:46.527Z,14.01
2018-04-16T16:04:52.671Z,13.97
2018-04-16T16:07:58.586Z,13.93
2018-04-16T16:11:04.237Z,13.88
2018-04-16T16:14:09.747Z,13.84
2018-04-16T16:17:14.782Z,13.79
2018-04-16T16:20:20.107Z,13.76
2018-04-16T16:23:25.482Z,13.72
2018-04-16T16:26:31.310Z,13.69
2018-04-16T16:29:36.657Z,13.66
2018-04-16T16:32:41.990Z,13.62
2018-04-16T16:35:47.121Z,13.58
2018-04-16T16:38:52.917Z,13.56
2018-04-16T16:41:58.560Z,13.52
2018-04-16T16:45:04.862Z,13.49
2018-04-16T16:48:10.400Z,13.45
2018-04-16T16:51:15.650Z,13.43
2018-04-16T16:54:21.485Z,13.39
2018-04-16T16:57:26.413Z,13.38
2018-04-16T17:00:32.297Z,13.35
2018-04-16T17:03:37.233Z,13.33
2018-04-16T17:06:43.131Z,13.30
2018-04-16T17:09:48.037Z,13.27
2018-04-16T17:12:53.860Z,13.24
2018-04-16T17:15:59.707Z,13.22
2018-04-16T17:19:04.405Z,13.20
2018-04-16T17:22:10.085Z,13.17
2018-04-16T17:25:15.851Z,13.15
2018-04-16T17:28:20.788Z,13.13
2018-04-16T17:31:25.720Z,13.11
2018-04-16T17:34:30.730Z,13.09
2018-04-16T17:37:35.859Z,13.08
2018-04-16T17:40:40.801Z,13.06
2018-04-16T17:43:45.761Z,13.03
2018-04-16T17:46:50.899Z,13.02
2018-04-16T17:49:55.856Z,13.00
2018-04-16T17:53:01.314Z,12.98
2018-04-16T17:56:07.176Z,12.96
2018-04-16T17:59:14.202Z,12.93
2018-04-16T18:02:19.761Z,12.91
2018-04-16T18:05:25.712Z,12.89
2018-04-16T18:08:31.262Z,12.87
2018-04-16T18:11:36.608Z,12.85
2018-04-16T18:14:41.675Z,12.82
2018-04-16T18:17:46.610Z,12.79
2018-04-16T18:20:52.665Z,12.76
2018-04-16T18:23:58.073Z,12.73
2018-04-16T18:27:03.695Z,12.71
2018-04-16T18:30:08.921Z,12.68
2018-04-16T18:33:13.922Z,12.65
2018-04-16T18:36:19.507Z,12.62
2018-04-16T18:39:24.469Z,12.59
2018-04-16T18:42:30.654Z,12.54
2018-04-16T18:45:36.593Z,12.51
2018-04-16T18:48:42.142Z,12.47
2018-04-16T18:51:47.989Z,12.43
2018-04-16T18:54:53.451Z,12.40
2018-04-16T18:58:00.229Z,12.36
2018-04-16T19:01:05.601Z,12.32
2018-04-16T19:04:10.217Z,12.28
2018-04-16T19:07:15.785Z,12.24
2018-04-16T19:10:20.393Z,12.19
2018-04-16T19:13:26.250Z,12.14
2018-04-16T19:16:31.225Z,12.10
2018-04-16T19:19:36.181Z,12.05
2018-04-16T19:22:41.745Z,12.01
2018-04-16T19:25:47.646Z,11.95
2018-04-16T19:28:52.470Z,11.90
2018-04-16T19:31:57.836Z,11.87
2018-04-16T19:35:07.257Z,11.83
2018-04-16T19:38:14.269Z,11.78
2018-04-16T19:41:19.590Z,11.74
2018-04-16T19:44:24.520Z,11.69
2018-04-16T19:47:29.878Z,11.64
2018-04-16T19:50:34.861Z,11.57
2018-04-16T19:53:40.809Z,11.54
2018-04-16T19:56:52.709Z,11.47
2018-04-16T19:59:58.559Z,11.41
2018-04-16T20:03:09.981Z,11.37
2018-04-16T20:06:15.597Z,11.33
2018-04-16T20:09:21.149Z,11.28
2018-04-16T20:12:27.078Z,11.24
2018-04-16T20:15:32.627Z,11.20
2018-04-16T20:18:37.563Z,11.16
2018-04-16T20:21:42.481Z,11.15
2018-04-16T20:24:48.438Z,11.12
2018-04-16T20:27:54.062Z,11.11
2018-04-16T20:30:58.984Z,11.08
2018-04-16T20:34:04.829Z,11.07
2018-04-16T20:37:10.185Z,11.05
2018-04-16T20:40:15.117Z,11.03
2018-04-16T20:43:20.965Z,11.01
2018-04-16T20:46:26.301Z,10.99
2018-04-16T20:49:31.237Z,10.96
2018-04-16T20:52:36.572Z,10.94
2018-04-16T20:55:41.509Z,10.91
2018-04-16T20:58:46.623Z,10.89
2018-04-16T21:01:52.491Z,10.86
2018-04-16T21:04:58.322Z,10.84
2018-04-16T21:08:03.252Z,10.82
2018-04-16T21:11:08.918Z,10.79
2018-04-16T21:14:13.844Z,10.77
2018-04-16T21:17:18.790Z,10.74
2018-04-16T21:20:24.432Z,10.72
2018-04-16T21:23:29.413Z,10.69
2018-04-16T21:26:34.377Z,10.67
2018-04-16T21:29:39.945Z,10.64
2018-04-16T21:32:44.869Z,10.61
2018-04-16T21:35:50.208Z,10.58
2018-04-16T21:38:55.136Z,10.56
2018-04-16T21:42:00.685Z,10.52
2018-04-16T21:45:05.294Z,10.48
2018-04-16T21:48:10.725Z,10.43
2018-04-16T21:51:15.335Z,10.39
2018-04-16T21:54:20.534Z,10.33
2018-04-16T21:57:26.369Z,10.28
2018-04-16T22:00:31.701Z,10.25
2018-04-16T22:03:37.593Z,10.18
2018-04-16T22:06:42.535Z,10.13
2018-04-16T22:09:48.960Z,10.03
2018-04-16T22:12:54.681Z,10.01
2018-04-16T22:15:59.619Z,9.96
2018-04-16T22:19:05.284Z,9.94
2018-04-16T22:22:10.993Z,9.90
2018-04-16T22:25:16.344Z,9.87
2018-04-16T22:28:22.589Z,9.87
2018-04-16T22:31:27.971Z,9.81
2018-04-16T22:34:32.657Z,9.77
2018-04-16T22:37:38.041Z,9.76
2018-04-16T22:40:42.965Z,9.73
2018-04-16T22:43:48.173Z,9.72
2018-04-16T22:46:53.521Z,9.67
2018-04-16T22:49:58.441Z,9.67
2018-04-16T22:53:04.769Z,9.66
2018-04-16T22:56:09.357Z,9.62
2018-04-16T22:59:14.833Z,9.56
2018-04-16T23:02:20.760Z,9.52
2018-04-16T23:05:26.577Z,9.47
2018-04-16T23:08:32.296Z,9.43
2018-04-16T23:11:38.542Z,9.41
2018-04-16T23:14:43.916Z,9.33
2018-04-16T23:17:49.495Z,9.29
2018-04-16T23:20:55.597Z,9.27
2018-04-16T23:24:01.210Z,9.19
2018-04-16T23:27:06.466Z,9.18
2018-04-16T23:30:11.840Z,9.12
2018-04-16T23:33:17.669Z,9.09
2018-04-16T23:36:23.998Z,9.03
2018-04-16T23:39:31.037Z,8.98
2018-04-16T23:42:36.870Z,8.94
2018-04-16T23:45:42.961Z,8.89
2018-04-16T23:48:49.098Z,8.86
2018-04-16T23:51:54.286Z,8.78
2018-04-16T23:54:59.913Z,8.76
2018-04-16T23:58:06.032Z,8.68
